sensor_id;sensor_type;location;lat;lon;timestamp;pressure;altitude;pressure_sealevel;temperature;humidity
82249;BME280;71851;49.092;18.918;2024-02-21T00:01:18;97905.28;;;12.82;54.50
82249;BME280;71851;49.092;18.918;2024-02-21T00:04:20;97910.78;;;12.73;54.86
82249;BME280;71851;49.092;18.918;2024-02-21T00:07:20;97906.63;;;12.78;54.60
82249;BME280;71851;49.092;18.918;2024-02-21T00:10:21;97902.53;;;12.91;54.91
82249;BME280;71851;49.092;18.918;2024-02-21T00:13:21;97896.44;;;12.75;53.64
82249;BME280;71851;49.092;18.918;2024-02-21T00:16:21;97899.44;;;12.72;53.79
82249;BME280;71851;49.092;18.918;2024-02-21T00:19:22;97898.31;;;12.67;54.67
82249;BME280;71851;49.092;18.918;2024-02-21T00:22:22;97891.63;;;12.79;54.19
82249;BME280;71851;49.092;18.918;2024-02-21T00:25:23;97889.13;;;12.63;53.82
82249;BME280;71851;49.092;18.918;2024-02-21T00:28:23;97888.88;;;12.58;54.29
82249;BME280;71851;49.092;18.918;2024-02-21T00:31:23;97888.75;;;12.29;54.51
82249;BME280;71851;49.092;18.918;2024-02-21T00:34:24;97888.25;;;12.33;54.82
82249;BME280;71851;49.092;18.918;2024-02-21T00:37:24;97884.78;;;12.55;53.92
82249;BME280;71851;49.092;18.918;2024-02-21T00:40:25;97881.19;;;12.34;54.35
82249;BME280;71851;49.092;18.918;2024-02-21T00:43:26;97874.19;;;12.41;54.16
82249;BME280;71851;49.092;18.918;2024-02-21T00:46:26;97874.25;;;12.33;53.93
82249;BME280;71851;49.092;18.918;2024-02-21T00:49:27;97882.94;;;12.19;54.14
82249;BME280;71851;49.092;18.918;2024-02-21T00:52:27;97879.72;;;12.09;54.09
82249;BME280;71851;49.092;18.918;2024-02-21T00:55:28;97879.13;;;11.98;54.37
82249;BME280;71851;49.092;18.918;2024-02-21T00:58:29;97868.78;;;11.97;54.66
82249;BME280;71851;49.092;18.918;2024-02-21T01:01:31;97873.38;;;11.64;55.07
82249;BME280;71851;49.092;18.918;2024-02-21T01:04:31;97881.16;;;11.58;55.63
82249;BME280;71851;49.092;18.918;2024-02-21T01:07:31;97870.47;;;11.59;55.51
82249;BME280;71851;49.092;18.918;2024-02-21T01:10:32;97878.31;;;11.29;56.30
82249;BME280;71851;49.092;18.918;2024-02-21T01:13:32;97870.97;;;11.24;56.46
82249;BME280;71851;49.092;18.918;2024-02-21T01:16:33;97879.84;;;11.15;57.15
82249;BME280;71851;49.092;18.918;2024-02-21T01:19:33;97873.44;;;11.18;56.84
82249;BME280;71851;49.092;18.918;2024-02-21T01:22:34;97864.38;;;11.28;56.37
82249;BME280;71851;49.092;18.918;2024-02-21T01:25:34;97866.88;;;11.22;56.94
82249;BME280;71851;49.092;18.918;2024-02-21T01:28:35;97864.59;;;11.10;56.78
82249;BME280;71851;49.092;18.918;2024-02-21T01:31:38;97861.31;;;11.08;57.18
82249;BME280;71851;49.092;18.918;2024-02-21T01:34:39;97864.00;;;11.39;56.17
82249;BME280;71851;49.092;18.918;2024-02-21T01:37:39;97859.41;;;11.33;57.04
82249;BME280;71851;49.092;18.918;2024-02-21T01:40:40;97858.22;;;11.44;56.29
82249;BME280;71851;49.092;18.918;2024-02-21T01:43:41;97859.16;;;11.51;55.11
82249;BME280;71851;49.092;18.918;2024-02-21T01:46:42;97857.97;;;11.23;56.54
82249;BME280;71851;49.092;18.918;2024-02-21T01:49:43;97867.09;;;11.43;56.40
82249;BME280;71851;49.092;18.918;2024-02-21T01:52:45;97859.34;;;11.49;57.06
82249;BME280;71851;49.092;18.918;2024-02-21T01:55:47;97856.94;;;11.70;55.16
82249;BME280;71851;49.092;18.918;2024-02-21T01:58:48;97857.31;;;11.67;54.95
82249;BME280;71851;49.092;18.918;2024-02-21T02:01:51;97855.03;;;11.87;54.47
82249;BME280;71851;49.092;18.918;2024-02-21T02:04:52;97856.00;;;11.94;54.01
82249;BME280;71851;49.092;18.918;2024-02-21T02:07:53;97847.56;;;11.76;54.06
82249;BME280;71851;49.092;18.918;2024-02-21T02:10:53;97852.28;;;12.03;52.99
82249;BME280;71851;49.092;18.918;2024-02-21T02:13:54;97844.53;;;12.10;53.50
82249;BME280;71851;49.092;18.918;2024-02-21T02:16:54;97847.94;;;12.33;53.05
82249;BME280;71851;49.092;18.918;2024-02-21T02:19:55;97841.75;;;12.26;52.80
82249;BME280;71851;49.092;18.918;2024-02-21T02:22:55;97842.34;;;12.36;53.03
82249;BME280;71851;49.092;18.918;2024-02-21T02:25:56;97836.25;;;12.35;53.52
82249;BME280;71851;49.092;18.918;2024-02-21T02:28:56;97824.03;;;12.57;52.50
82249;BME280;71851;49.092;18.918;2024-02-21T02:31:58;97816.06;;;12.50;52.55
82249;BME280;71851;49.092;18.918;2024-02-21T02:34:58;97813.13;;;12.45;52.64
82249;BME280;71851;49.092;18.918;2024-02-21T02:37:58;97815.69;;;12.53;52.91
82249;BME280;71851;49.092;18.918;2024-02-21T02:40:59;97819.47;;;12.36;53.46
82249;BME280;71851;49.092;18.918;2024-02-21T02:43:59;97821.19;;;12.07;54.54
82249;BME280;71851;49.092;18.918;2024-02-21T02:47:00;97816.56;;;12.09;54.49
82249;BME280;71851;49.092;18.918;2024-02-21T02:50:00;97807.56;;;12.03;54.53
82249;BME280;71851;49.092;18.918;2024-02-21T02:53:01;97821.50;;;12.12;55.04
82249;BME280;71851;49.092;18.918;2024-02-21T02:56:02;97826.63;;;12.28;53.89
82249;BME280;71851;49.092;18.918;2024-02-21T02:59:02;97835.25;;;12.36;54.24
82249;BME280;71851;49.092;18.918;2024-02-21T03:02:03;97825.38;;;12.53;53.45
82249;BME280;71851;49.092;18.918;2024-02-21T03:05:14;97831.56;;;12.45;52.99
82249;BME280;71851;49.092;18.918;2024-02-21T03:08:16;97825.16;;;12.62;53.43
82249;BME280;71851;49.092;18.918;2024-02-21T03:11:17;97829.75;;;12.46;53.31
82249;BME280;71851;49.092;18.918;2024-02-21T03:14:17;97825.84;;;12.42;52.77
82249;BME280;71851;49.092;18.918;2024-02-21T03:17:18;97826.16;;;12.24;53.40
82249;BME280;71851;49.092;18.918;2024-02-21T03:20:18;97823.47;;;12.32;53.39
82249;BME280;71851;49.092;18.918;2024-02-21T03:23:20;97822.41;;;12.19;53.45
82249;BME280;71851;49.092;18.918;2024-02-21T03:26:20;97827.06;;;12.31;53.54
82249;BME280;71851;49.092;18.918;2024-02-21T03:29:21;97840.88;;;12.33;53.77
82249;BME280;71851;49.092;18.918;2024-02-21T03:32:22;97846.44;;;12.38;54.21
82249;BME280;71851;49.092;18.918;2024-02-21T03:35:22;97846.34;;;12.09;55.49
82249;BME280;71851;49.092;18.918;2024-02-21T03:38:26;97832.66;;;11.91;54.65
82249;BME280;71851;49.092;18.918;2024-02-21T03:41:27;97841.31;;;12.22;54.03
82249;BME280;71851;49.092;18.918;2024-02-21T03:44:28;97839.31;;;12.24;54.13
82249;BME280;71851;49.092;18.918;2024-02-21T03:47:30;97832.63;;;12.36;53.81
82249;BME280;71851;49.092;18.918;2024-02-21T03:50:30;97834.63;;;12.49;52.90
82249;BME280;71851;49.092;18.918;2024-02-21T03:53:30;97835.91;;;12.38;53.53
82249;BME280;71851;49.092;18.918;2024-02-21T03:56:32;97834.31;;;12.29;52.93
82249;BME280;71851;49.092;18.918;2024-02-21T03:59:38;97834.53;;;12.05;54.42
82249;BME280;71851;49.092;18.918;2024-02-21T04:02:41;97836.44;;;12.11;54.53
82249;BME280;71851;49.092;18.918;2024-02-21T04:05:41;97825.66;;;12.06;54.13
82249;BME280;71851;49.092;18.918;2024-02-21T04:08:41;97826.22;;;12.16;54.03
82249;BME280;71851;49.092;18.918;2024-02-21T04:11:42;97828.22;;;11.91;54.76
82249;BME280;71851;49.092;18.918;2024-02-21T04:14:42;97814.81;;;12.01;54.72
82249;BME280;71851;49.092;18.918;2024-02-21T04:17:43;97815.78;;;11.85;54.90
82249;BME280;71851;49.092;18.918;2024-02-21T04:20:46;97819.56;;;11.83;55.29
82249;BME280;71851;49.092;18.918;2024-02-21T04:23:47;97820.16;;;11.93;55.01
82249;BME280;71851;49.092;18.918;2024-02-21T04:26:49;97828.03;;;11.93;54.69
82249;BME280;71851;49.092;18.918;2024-02-21T04:29:49;97825.47;;;11.85;55.63
82249;BME280;71851;49.092;18.918;2024-02-21T04:32:50;97835.34;;;11.83;55.45
82249;BME280;71851;49.092;18.918;2024-02-21T04:35:51;97832.94;;;11.73;55.10
82249;BME280;71851;49.092;18.918;2024-02-21T04:38:56;97832.50;;;11.62;56.13
82249;BME280;71851;49.092;18.918;2024-02-21T04:41:57;97830.56;;;11.56;56.12
82249;BME280;71851;49.092;18.918;2024-02-21T04:44:59;97832.97;;;10.17;60.11
82249;BME280;71851;49.092;18.918;2024-02-21T04:47:59;97818.31;;;9.82;61.48
82249;BME280;71851;49.092;18.918;2024-02-21T04:51:00;97819.50;;;9.88;62.56
82249;BME280;71851;49.092;18.918;2024-02-21T04:54:00;97814.75;;;9.91;61.88
82249;BME280;71851;49.092;18.918;2024-02-21T04:57:01;97798.00;;;9.76;62.60
82249;BME280;71851;49.092;18.918;2024-02-21T05:00:01;97801.16;;;9.88;62.22
82249;BME280;71851;49.092;18.918;2024-02-21T05:03:02;97815.56;;;9.84;62.62
82249;BME280;71851;49.092;18.918;2024-02-21T05:06:03;97831.59;;;9.73;62.70
82249;BME280;71851;49.092;18.918;2024-02-21T05:09:03;97834.50;;;9.46;63.53
82249;BME280;71851;49.092;18.918;2024-02-21T05:12:04;97830.19;;;9.36;63.60
82249;BME280;71851;49.092;18.918;2024-02-21T05:15:05;97832.53;;;9.39;63.38
82249;BME280;71851;49.092;18.918;2024-02-21T05:18:05;97841.81;;;9.34;63.20
82249;BME280;71851;49.092;18.918;2024-02-21T05:21:06;97835.41;;;9.28;63.79
82249;BME280;71851;49.092;18.918;2024-02-21T05:24:06;97823.50;;;9.42;63.84
82249;BME280;71851;49.092;18.918;2024-02-21T05:27:06;97819.59;;;9.54;62.93
82249;BME280;71851;49.092;18.918;2024-02-21T05:30:07;97822.25;;;9.94;62.85
82249;BME280;71851;49.092;18.918;2024-02-21T05:33:07;97814.88;;;9.58;62.26
82249;BME280;71851;49.092;18.918;2024-02-21T05:36:08;97813.72;;;9.68;62.56
82249;BME280;71851;49.092;18.918;2024-02-21T05:39:08;97811.47;;;9.81;61.93
82249;BME280;71851;49.092;18.918;2024-02-21T05:42:09;97818.16;;;9.68;61.73
82249;BME280;71851;49.092;18.918;2024-02-21T05:45:09;97818.19;;;9.84;61.83
82249;BME280;71851;49.092;18.918;2024-02-21T05:48:10;97825.41;;;9.98;61.90
82249;BME280;71851;49.092;18.918;2024-02-21T05:51:10;97821.75;;;9.67;61.99
82249;BME280;71851;49.092;18.918;2024-02-21T05:54:10;97817.69;;;9.88;61.47
82249;BME280;71851;49.092;18.918;2024-02-21T05:57:11;97819.34;;;9.97;61.68
82249;BME280;71851;49.092;18.918;2024-02-21T06:00:12;97828.03;;;10.06;61.50
82249;BME280;71851;49.092;18.918;2024-02-21T06:03:15;97817.19;;;10.01;60.94
82249;BME280;71851;49.092;18.918;2024-02-21T06:06:15;97811.63;;;10.04;61.07
82249;BME280;71851;49.092;18.918;2024-02-21T06:09:16;97822.91;;;9.96;61.63
82249;BME280;71851;49.092;18.918;2024-02-21T06:12:16;97829.69;;;10.15;61.00
82249;BME280;71851;49.092;18.918;2024-02-21T06:15:17;97835.88;;;10.38;60.15
82249;BME280;71851;49.092;18.918;2024-02-21T06:18:18;97834.69;;;10.65;58.85
82249;BME280;71851;49.092;18.918;2024-02-21T06:21:20;97840.88;;;10.88;58.66
82249;BME280;71851;49.092;18.918;2024-02-21T06:24:20;97827.06;;;11.02;57.94
82249;BME280;71851;49.092;18.918;2024-02-21T06:27:23;97820.88;;;11.26;57.78
82249;BME280;71851;49.092;18.918;2024-02-21T06:30:24;97822.44;;;11.65;56.49
82249;BME280;71851;49.092;18.918;2024-02-21T06:33:25;97833.13;;;11.94;55.69
82249;BME280;71851;49.092;18.918;2024-02-21T06:36:25;97830.59;;;12.01;54.79
82249;BME280;71851;49.092;18.918;2024-02-21T06:39:26;97830.09;;;12.06;55.65
82249;BME280;71851;49.092;18.918;2024-02-21T06:42:26;97827.00;;;12.02;55.44
82249;BME280;71851;49.092;18.918;2024-02-21T06:45:27;97838.22;;;11.96;55.05
82249;BME280;71851;49.092;18.918;2024-02-21T06:48:27;97834.78;;;11.95;55.30
82249;BME280;71851;49.092;18.918;2024-02-21T06:51:27;97835.88;;;12.01;55.86
82249;BME280;71851;49.092;18.918;2024-02-21T06:54:28;97824.81;;;12.28;55.14
82249;BME280;71851;49.092;18.918;2024-02-21T06:57:29;97832.00;;;11.89;55.76
82249;BME280;71851;49.092;18.918;2024-02-21T07:00:29;97837.66;;;12.01;55.65
82249;BME280;71851;49.092;18.918;2024-02-21T07:03:30;97837.78;;;11.84;55.40
82249;BME280;71851;49.092;18.918;2024-02-21T07:06:30;97845.47;;;11.94;55.44
82249;BME280;71851;49.092;18.918;2024-02-21T07:09:32;97842.19;;;11.92;55.13
82249;BME280;71851;49.092;18.918;2024-02-21T07:12:33;97839.97;;;11.81;55.18
82249;BME280;71851;49.092;18.918;2024-02-21T07:15:33;97845.16;;;11.89;55.07
82249;BME280;71851;49.092;18.918;2024-02-21T07:18:34;97834.97;;;12.09;54.74
82249;BME280;71851;49.092;18.918;2024-02-21T07:21:34;97846.28;;;11.94;55.29
82249;BME280;71851;49.092;18.918;2024-02-21T07:24:38;97836.25;;;12.13;55.75
82249;BME280;71851;49.092;18.918;2024-02-21T07:27:38;97835.09;;;12.15;55.25
82249;BME280;71851;49.092;18.918;2024-02-21T07:30:39;97841.00;;;12.17;55.32
82249;BME280;71851;49.092;18.918;2024-02-21T07:33:39;97834.84;;;12.10;55.47
82249;BME280;71851;49.092;18.918;2024-02-21T07:36:39;97832.13;;;11.95;55.60
82249;BME280;71851;49.092;18.918;2024-02-21T07:39:40;97831.97;;;11.97;55.99
82249;BME280;71851;49.092;18.918;2024-02-21T07:42:41;97831.91;;;12.05;55.28
82249;BME280;71851;49.092;18.918;2024-02-21T07:45:42;97822.38;;;12.04;55.78
82249;BME280;71851;49.092;18.918;2024-02-21T07:48:42;97823.72;;;12.00;55.94
82249;BME280;71851;49.092;18.918;2024-02-21T07:51:43;97819.00;;;11.95;55.66
82249;BME280;71851;49.092;18.918;2024-02-21T07:54:43;97819.56;;;12.06;55.62
82249;BME280;71851;49.092;18.918;2024-02-21T07:57:43;97820.66;;;12.11;55.69
82249;BME280;71851;49.092;18.918;2024-02-21T08:00:44;97820.03;;;12.61;54.16
82249;BME280;71851;49.092;18.918;2024-02-21T08:03:44;97824.81;;;12.06;56.45
82249;BME280;71851;49.092;18.918;2024-02-21T08:06:45;97819.91;;;12.03;55.69
82249;BME280;71851;49.092;18.918;2024-02-21T08:09:45;97825.06;;;11.96;55.52
82249;BME280;71851;49.092;18.918;2024-02-21T08:12:46;97829.56;;;11.87;56.82
82249;BME280;71851;49.092;18.918;2024-02-21T08:15:46;97823.25;;;11.74;57.44
82249;BME280;71851;49.092;18.918;2024-02-21T08:18:46;97814.75;;;11.86;57.49
82249;BME280;71851;49.092;18.918;2024-02-21T08:21:47;97810.84;;;11.82;56.49
82249;BME280;71851;49.092;18.918;2024-02-21T08:24:47;97823.16;;;11.90;57.76
82249;BME280;71851;49.092;18.918;2024-02-21T08:27:47;97819.69;;;11.89;56.06
82249;BME280;71851;49.092;18.918;2024-02-21T08:30:48;97819.03;;;11.87;56.08
82249;BME280;71851;49.092;18.918;2024-02-21T08:33:48;97818.22;;;11.87;56.66
82249;BME280;71851;49.092;18.918;2024-02-21T08:36:49;97814.19;;;11.99;56.55
82249;BME280;71851;49.092;18.918;2024-02-21T08:39:50;97818.41;;;11.85;55.55
82249;BME280;71851;49.092;18.918;2024-02-21T08:42:50;97812.59;;;12.13;56.29
82249;BME280;71851;49.092;18.918;2024-02-21T08:45:50;97813.09;;;12.31;54.67
82249;BME280;71851;49.092;18.918;2024-02-21T08:48:51;97813.47;;;12.28;55.46
82249;BME280;71851;49.092;18.918;2024-02-21T08:51:51;97813.66;;;12.41;54.62
82249;BME280;71851;49.092;18.918;2024-02-21T08:54:52;97815.88;;;12.52;54.10
82249;BME280;71851;49.092;18.918;2024-02-21T08:57:53;97811.78;;;12.64;54.99
82249;BME280;71851;49.092;18.918;2024-02-21T09:00:54;97810.50;;;12.60;52.93
82249;BME280;71851;49.092;18.918;2024-02-21T09:03:54;97809.06;;;12.72;53.46
82249;BME280;71851;49.092;18.918;2024-02-21T09:06:57;97813.19;;;13.04;53.05
82249;BME280;71851;49.092;18.918;2024-02-21T09:09:59;97811.41;;;13.25;52.38
82249;BME280;71851;49.092;18.918;2024-02-21T09:12:59;97807.50;;;13.36;52.27
82249;BME280;71851;49.092;18.918;2024-02-21T09:16:00;97813.72;;;13.64;50.97
82249;BME280;71851;49.092;18.918;2024-02-21T09:19:03;97805.34;;;13.60;50.37
82249;BME280;71851;49.092;18.918;2024-02-21T09:22:03;97799.47;;;13.44;50.09
82249;BME280;71851;49.092;18.918;2024-02-21T09:25:04;97802.00;;;13.16;51.18
82249;BME280;71851;49.092;18.918;2024-02-21T09:28:05;97795.81;;;13.24;50.58
82249;BME280;71851;49.092;18.918;2024-02-21T09:31:09;97792.31;;;13.38;50.77
82249;BME280;71851;49.092;18.918;2024-02-21T09:34:10;97805.13;;;13.41;51.25
82249;BME280;71851;49.092;18.918;2024-02-21T09:37:11;97795.28;;;13.49;50.39
82249;BME280;71851;49.092;18.918;2024-02-21T09:40:17;97800.75;;;13.69;49.89
82249;BME280;71851;49.092;18.918;2024-02-21T09:43:18;97802.72;;;14.03;49.36
82249;BME280;71851;49.092;18.918;2024-02-21T09:46:19;97808.97;;;14.23;48.58
82249;BME280;71851;49.092;18.918;2024-02-21T09:49:31;97808.06;;;14.30;48.20
82249;BME280;71851;49.092;18.918;2024-02-21T09:52:38;97811.13;;;14.34;47.13
82249;BME280;71851;49.092;18.918;2024-02-21T09:55:39;97803.97;;;14.56;46.11
82249;BME280;71851;49.092;18.918;2024-02-21T09:58:41;97795.84;;;14.85;45.53
82249;BME280;71851;49.092;18.918;2024-02-21T10:01:45;97793.72;;;15.08;45.81
82249;BME280;71851;49.092;18.918;2024-02-21T10:04:47;97788.50;;;15.21;44.43
82249;BME280;71851;49.092;18.918;2024-02-21T10:07:48;97785.09;;;15.40;44.73
82249;BME280;71851;49.092;18.918;2024-02-21T10:10:49;97793.09;;;15.53;43.99
82249;BME280;71851;49.092;18.918;2024-02-21T10:13:49;97802.59;;;15.34;44.99
82249;BME280;71851;49.092;18.918;2024-02-21T10:16:57;97789.63;;;15.05;45.88
82249;BME280;71851;49.092;18.918;2024-02-21T10:20:11;97785.84;;;15.14;44.67
82249;BME280;71851;49.092;18.918;2024-02-21T10:23:11;97786.16;;;15.46;44.50
82249;BME280;71851;49.092;18.918;2024-02-21T10:26:12;97779.41;;;15.37;44.64
82249;BME280;71851;49.092;18.918;2024-02-21T10:29:13;97789.13;;;15.23;45.37
82249;BME280;71851;49.092;18.918;2024-02-21T10:32:14;97786.31;;;14.90;45.40
82249;BME280;71851;49.092;18.918;2024-02-21T10:35:25;97782.56;;;14.72;46.09
82249;BME280;71851;49.092;18.918;2024-02-21T10:38:27;97765.56;;;14.87;45.53
82249;BME280;71851;49.092;18.918;2024-02-21T10:41:29;97759.84;;;15.24;44.78
82249;BME280;71851;49.092;18.918;2024-02-21T10:44:37;97752.25;;;15.82;44.06
82249;BME280;71851;49.092;18.918;2024-02-21T10:47:39;97750.44;;;16.08;43.07
82249;BME280;71851;49.092;18.918;2024-02-21T10:56:53;97735.19;;;15.91;42.89
82249;BME280;71851;49.092;18.918;2024-02-21T10:59:58;97736.38;;;15.82;43.92
82249;BME280;71851;49.092;18.918;2024-02-21T11:02:59;97724.88;;;15.35;44.62
82249;BME280;71851;49.092;18.918;2024-02-21T11:06:01;97725.78;;;15.02;45.70
82249;BME280;71851;49.092;18.918;2024-02-21T11:09:06;97717.66;;;14.97;46.77
82249;BME280;71851;49.092;18.918;2024-02-21T11:12:07;97723.84;;;14.76;47.21
82249;BME280;71851;49.092;18.918;2024-02-21T11:15:09;97723.13;;;14.55;47.38
82249;BME280;71851;49.092;18.918;2024-02-21T11:18:09;97717.81;;;14.48;47.46
82249;BME280;71851;49.092;18.918;2024-02-21T11:21:10;97712.59;;;14.06;47.66
82249;BME280;71851;49.092;18.918;2024-02-21T11:24:10;97705.78;;;14.18;48.64
82249;BME280;71851;49.092;18.918;2024-02-21T11:27:16;97699.81;;;14.30;48.43
82249;BME280;71851;49.092;18.918;2024-02-21T11:30:16;97700.81;;;14.29;48.63
82249;BME280;71851;49.092;18.918;2024-02-21T11:33:22;97701.13;;;14.20;49.29
82249;BME280;71851;49.092;18.918;2024-02-21T11:36:25;97698.09;;;14.23;49.32
82249;BME280;71851;49.092;18.918;2024-02-21T11:39:26;97696.81;;;14.12;49.55
82249;BME280;71851;49.092;18.918;2024-02-21T11:42:27;97680.00;;;14.20;49.18
82249;BME280;71851;49.092;18.918;2024-02-21T11:45:28;97679.44;;;14.24;48.68
82249;BME280;71851;49.092;18.918;2024-02-21T11:48:30;97683.25;;;14.49;48.35
82249;BME280;71851;49.092;18.918;2024-02-21T11:51:30;97675.53;;;14.89;47.56
82249;BME280;71851;49.092;18.918;2024-02-21T11:54:31;97683.69;;;15.00;47.45
82249;BME280;71851;49.092;18.918;2024-02-21T11:57:31;97676.94;;;14.91;47.10
82249;BME280;71851;49.092;18.918;2024-02-21T12:00:32;97670.88;;;14.91;46.89
82249;BME280;71851;49.092;18.918;2024-02-21T12:03:32;97668.00;;;14.92;46.99
82249;BME280;71851;49.092;18.918;2024-02-21T12:06:35;97666.19;;;14.99;46.45
82249;BME280;71851;49.092;18.918;2024-02-21T12:09:36;97658.72;;;15.16;46.40
82249;BME280;71851;49.092;18.918;2024-02-21T12:12:37;97648.84;;;15.77;45.73
82249;BME280;71851;49.092;18.918;2024-02-21T12:15:41;97633.53;;;16.11;44.77
82249;BME280;71851;49.092;18.918;2024-02-21T12:18:41;97638.41;;;16.08;44.11
82249;BME280;71851;49.092;18.918;2024-02-21T12:21:42;97634.38;;;15.99;44.94
82249;BME280;71851;49.092;18.918;2024-02-21T12:24:42;97636.19;;;15.85;45.40
82249;BME280;71851;49.092;18.918;2024-02-21T12:27:47;97627.47;;;15.72;45.47
82249;BME280;71851;49.092;18.918;2024-02-21T12:30:49;97620.97;;;15.74;45.52
82249;BME280;71851;49.092;18.918;2024-02-21T12:33:50;97620.09;;;16.00;45.22
82249;BME280;71851;49.092;18.918;2024-02-21T12:36:52;97614.63;;;15.82;45.83
82249;BME280;71851;49.092;18.918;2024-02-21T12:39:52;97614.75;;;16.26;44.48
82249;BME280;71851;49.092;18.918;2024-02-21T12:42:53;97607.63;;;16.33;44.92
82249;BME280;71851;49.092;18.918;2024-02-21T12:45:54;97603.94;;;16.34;45.13
82249;BME280;71851;49.092;18.918;2024-02-21T12:48:54;97611.66;;;16.49;44.70
82249;BME280;71851;49.092;18.918;2024-02-21T12:51:55;97605.16;;;16.32;44.08
82249;BME280;71851;49.092;18.918;2024-02-21T12:54:55;97601.34;;;16.01;44.98
82249;BME280;71851;49.092;18.918;2024-02-21T12:58:03;97586.72;;;15.92;46.06
82249;BME280;71851;49.092;18.918;2024-02-21T13:01:05;97586.13;;;15.77;45.66
82249;BME280;71851;49.092;18.918;2024-02-21T13:04:06;97586.97;;;15.58;46.66
82249;BME280;71851;49.092;18.918;2024-02-21T13:07:06;97587.75;;;15.32;46.85
82249;BME280;71851;49.092;18.918;2024-02-21T13:10:07;97582.06;;;15.22;47.00
82249;BME280;71851;49.092;18.918;2024-02-21T13:13:08;97585.91;;;15.20;47.31
82249;BME280;71851;49.092;18.918;2024-02-21T13:16:09;97585.47;;;15.03;48.06
82249;BME280;71851;49.092;18.918;2024-02-21T13:19:10;97569.66;;;15.16;47.84
82249;BME280;71851;49.092;18.918;2024-02-21T13:22:11;97570.25;;;15.38;48.06
82249;BME280;71851;49.092;18.918;2024-02-21T13:25:11;97577.59;;;15.36;48.33
82249;BME280;71851;49.092;18.918;2024-02-21T13:28:15;97554.81;;;15.09;48.04
82249;BME280;71851;49.092;18.918;2024-02-21T13:31:16;97547.28;;;15.19;47.65
82249;BME280;71851;49.092;18.918;2024-02-21T13:34:17;97553.38;;;15.32;47.13
82249;BME280;71851;49.092;18.918;2024-02-21T13:37:17;97564.97;;;15.31;47.24
82249;BME280;71851;49.092;18.918;2024-02-21T13:40:18;97557.47;;;15.48;46.65
82249;BME280;71851;49.092;18.918;2024-02-21T13:43:18;97556.03;;;15.52;46.76
82249;BME280;71851;49.092;18.918;2024-02-21T13:46:19;97558.47;;;15.60;46.56
82249;BME280;71851;49.092;18.918;2024-02-21T13:49:20;97558.88;;;15.70;46.33
82249;BME280;71851;49.092;18.918;2024-02-21T13:52:22;97549.34;;;15.63;47.27
82249;BME280;71851;49.092;18.918;2024-02-21T13:55:26;97537.53;;;15.39;46.02
82249;BME280;71851;49.092;18.918;2024-02-21T13:58:27;97548.50;;;15.10;46.64
82249;BME280;71851;49.092;18.918;2024-02-21T14:01:27;97541.97;;;15.06;47.70
82249;BME280;71851;49.092;18.918;2024-02-21T14:04:32;97547.25;;;15.06;47.85
82249;BME280;71851;49.092;18.918;2024-02-21T14:07:32;97539.41;;;14.45;47.33
82249;BME280;71851;49.092;18.918;2024-02-21T14:10:35;97543.50;;;14.07;48.89
82249;BME280;71851;49.092;18.918;2024-02-21T14:13:37;97540.88;;;13.73;49.42
82249;BME280;71851;49.092;18.918;2024-02-21T14:16:37;97543.78;;;13.02;50.92
82249;BME280;71851;49.092;18.918;2024-02-21T14:19:38;97542.16;;;12.58;53.22
82249;BME280;71851;49.092;18.918;2024-02-21T14:22:39;97544.84;;;12.86;52.73
82249;BME280;71851;49.092;18.918;2024-02-21T14:25:40;97535.38;;;12.35;54.21
82249;BME280;71851;49.092;18.918;2024-02-21T14:28:41;97534.66;;;12.41;54.96
82249;BME280;71851;49.092;18.918;2024-02-21T14:31:42;97534.22;;;12.37;55.31
82249;BME280;71851;49.092;18.918;2024-02-21T14:34:42;97531.59;;;12.23;55.72
82249;BME280;71851;49.092;18.918;2024-02-21T14:37:43;97529.25;;;12.85;54.55
82249;BME280;71851;49.092;18.918;2024-02-21T14:40:44;97522.59;;;12.67;54.93
82249;BME280;71851;49.092;18.918;2024-02-21T14:43:44;97525.28;;;13.16;55.57
82249;BME280;71851;49.092;18.918;2024-02-21T14:46:44;97520.03;;;13.16;55.62
82249;BME280;71851;49.092;18.918;2024-02-21T14:49:45;97530.72;;;13.36;54.36
82249;BME280;71851;49.092;18.918;2024-02-21T14:52:45;97521.84;;;13.16;55.84
82249;BME280;71851;49.092;18.918;2024-02-21T14:55:46;97517.38;;;12.74;56.34
82249;BME280;71851;49.092;18.918;2024-02-21T14:58:46;97511.16;;;13.24;56.22
82249;BME280;71851;49.092;18.918;2024-02-21T15:01:47;97506.47;;;13.53;56.64
82249;BME280;71851;49.092;18.918;2024-02-21T15:04:48;97507.41;;;13.39;57.33
82249;BME280;71851;49.092;18.918;2024-02-21T15:07:48;97511.84;;;13.39;55.93
82249;BME280;71851;49.092;18.918;2024-02-21T15:10:48;97513.03;;;13.64;56.51
82249;BME280;71851;49.092;18.918;2024-02-21T15:13:50;97510.47;;;13.77;57.39
82249;BME280;71851;49.092;18.918;2024-02-21T15:16:50;97505.19;;;13.71;57.80
82249;BME280;71851;49.092;18.918;2024-02-21T15:19:51;97505.19;;;13.77;58.05
82249;BME280;71851;49.092;18.918;2024-02-21T15:22:55;97502.44;;;13.92;59.11
82249;BME280;71851;49.092;18.918;2024-02-21T15:25:55;97495.72;;;13.89;58.77
82249;BME280;71851;49.092;18.918;2024-02-21T15:28:57;97488.88;;;13.95;59.46
82249;BME280;71851;49.092;18.918;2024-02-21T15:31:57;97485.94;;;13.83;59.75
82249;BME280;71851;49.092;18.918;2024-02-21T15:34:59;97489.00;;;13.80;60.40
82249;BME280;71851;49.092;18.918;2024-02-21T15:37:59;97485.22;;;13.61;58.46
82249;BME280;71851;49.092;18.918;2024-02-21T15:40:59;97490.91;;;13.58;59.21
82249;BME280;71851;49.092;18.918;2024-02-21T15:44:00;97487.19;;;13.53;59.44
82249;BME280;71851;49.092;18.918;2024-02-21T15:47:01;97485.16;;;13.48;59.79
82249;BME280;71851;49.092;18.918;2024-02-21T15:50:01;97489.53;;;13.35;59.79
82249;BME280;71851;49.092;18.918;2024-02-21T15:53:02;97487.91;;;13.06;61.26